This is the latest recevied weather packets stored in our database for station/object VE3VGJ. If no packets are shown the sender has not sent any weather packets the latest 10 day(s).
| Time | Temp. | Humidity | Pressure | Rain* | Wind** | Luminosity | Snow |
|---|---|---|---|---|---|---|---|
| 1778009192 | 14.44° C | 49% | 1005.5 hPa | 0 mm | - | 171 W/m² | - |
| 1778008889 | 14.44° C | 49% | 1005.3 hPa | 0 mm | - | 172 W/m² | - |
| 1778008588 | 14.44° C | 49% | 1005.1 hPa | 0 mm | - | 221 W/m² | - |
| 1778008285 | 14.44° C | 49% | 1004.9 hPa | 0 mm | - | 255 W/m² | - |
| 1778007981 | 14.44° C | 48% | 1005 hPa | 0 mm | - | 236 W/m² | - |
| 1778007676 | 13.89° C | 49% | 1005.1 hPa | 0 mm | - | 266 W/m² | - |
| 1778007373 | 14.44° C | 47% | 1005 hPa | 0 mm | - | 245 W/m² | - |
| 1778007069 | 14.44° C | 47% | 1004.6 hPa | 0 mm | - | 277 W/m² | - |
| 1778006766 | 13.89° C | 49% | 1005 hPa | 0 mm | - | 258 W/m² | - |
| 1778006463 | 14.44° C | 49% | 1004.6 hPa | 0 mm | - | 198 W/m² | - |
| 1778006159 | 15° C | 50% | 1004.5 hPa | 0 mm | - | 155 W/m² | - |
| 1778005857 | 15° C | 49% | 1004.5 hPa | 0 mm | - | 149 W/m² | - |
| 1778005553 | 15° C | 50% | 1004.6 hPa | 0 mm | - | 262 W/m² | - |
| 1778005250 | 15° C | 50% | 1004.6 hPa | 0 mm | - | 348 W/m² | - |
| 1778004947 | 15.56° C | 50% | 1004.5 hPa | 0 mm | - | 339 W/m² | - |
| 1778004644 | 15.56° C | 52% | 1004.3 hPa | 0 mm | - | 224 W/m² | - |
| 1778004339 | 15.56° C | 53% | 1004.4 hPa | 0 mm | - | 252 W/m² | - |
| 1778004038 | 16.67° C | 51% | 1004.3 hPa | 0 mm | - | 197 W/m² | - |
| 1778003738 | 16.67° C | 52% | 1004.2 hPa | 0 mm | - | 294 W/m² | - |
| 1778003435 | 16.67° C | 55% | 1004 hPa | 0 mm | - | 328 W/m² | - |
| 1778003132 | 17.22° C | 54% | 1003.9 hPa | 0 mm | - | 512 W/m² | - |
| 1778002828 | 16.67° C | 56% | 1003.7 hPa | 0 mm | - | 570 W/m² | - |
| 1778002525 | 16.67° C | 55% | 1003.4 hPa | 0 mm | - | 559 W/m² | - |
| 1778002222 | 16.67° C | 56% | 1003.7 hPa | 0 mm | - | 507 W/m² | - |
| 1778001920 | 16.67° C | 56% | 1003.4 hPa | 0 mm | - | 496 W/m² | - |
* Rain latest hour (hover to see other rain measurements)
** Current wind speed in m/s (hover to see current wind gust speed)